sensor_id;sensor_type;location;lat;lon;timestamp;pressure;altitude;pressure_sealevel;temperature;humidity
8286;BME280;4181;43.416;24.598;2023-02-19T00:01:16;100129.03;;;10.74;100.00
8286;BME280;4181;43.416;24.598;2023-02-19T00:03:46;100131.44;;;10.70;100.00
8286;BME280;4181;43.416;24.598;2023-02-19T00:06:12;100135.88;;;10.55;100.00
8286;BME280;4181;43.416;24.598;2023-02-19T00:08:38;100136.50;;;10.62;100.00
8286;BME280;4181;43.416;24.598;2023-02-19T00:11:11;100125.31;;;10.63;100.00
8286;BME280;4181;43.416;24.598;2023-02-19T00:13:38;100135.09;;;10.59;100.00
8286;BME280;4181;43.416;24.598;2023-02-19T00:16:14;100126.97;;;10.43;100.00
8286;BME280;4181;43.416;24.598;2023-02-19T00:18:41;100126.78;;;10.49;100.00
8286;BME280;4181;43.416;24.598;2023-02-19T00:21:07;100123.72;;;10.46;100.00
8286;BME280;4181;43.416;24.598;2023-02-19T00:23:33;100115.38;;;10.36;100.00
8286;BME280;4181;43.416;24.598;2023-02-19T00:26:06;100118.69;;;10.38;100.00
8286;BME280;4181;43.416;24.598;2023-02-19T00:28:32;100112.34;;;10.32;100.00
8286;BME280;4181;43.416;24.598;2023-02-19T00:31:14;100116.78;;;10.38;100.00
8286;BME280;4181;43.416;24.598;2023-02-19T00:33:40;100114.63;;;10.40;100.00
8286;BME280;4181;43.416;24.598;2023-02-19T00:36:06;100113.31;;;10.43;100.00
8286;BME280;4181;43.416;24.598;2023-02-19T00:38:35;100124.63;;;10.51;100.00
8286;BME280;4181;43.416;24.598;2023-02-19T00:41:01;100107.59;;;10.44;100.00
8286;BME280;4181;43.416;24.598;2023-02-19T00:43:53;100111.53;;;10.53;100.00
8286;BME280;4181;43.416;24.598;2023-02-19T00:49:20;100112.78;;;10.62;100.00
8286;BME280;4181;43.416;24.598;2023-02-19T00:51:47;100113.03;;;10.61;100.00
8286;BME280;4181;43.416;24.598;2023-02-19T00:54:13;100114.25;;;10.53;100.00
8286;BME280;4181;43.416;24.598;2023-02-19T00:56:39;100111.53;;;10.53;100.00
8286;BME280;4181;43.416;24.598;2023-02-19T00:59:04;100092.44;;;10.53;100.00
8286;BME280;4181;43.416;24.598;2023-02-19T01:01:30;100092.75;;;10.35;100.00
8286;BME280;4181;43.416;24.598;2023-02-19T01:03:55;100081.75;;;10.30;100.00
8286;BME280;4181;43.416;24.598;2023-02-19T01:06:21;100107.69;;;10.49;100.00
8286;BME280;4181;43.416;24.598;2023-02-19T01:08:47;100102.22;;;10.49;100.00
8286;BME280;4181;43.416;24.598;2023-02-19T01:11:13;100096.84;;;10.54;100.00
8286;BME280;4181;43.416;24.598;2023-02-19T01:13:39;100103.28;;;10.48;100.00
8286;BME280;4181;43.416;24.598;2023-02-19T01:16:19;100113.72;;;10.51;100.00
8286;BME280;4181;43.416;24.598;2023-02-19T01:18:46;100113.66;;;10.46;100.00
8286;BME280;4181;43.416;24.598;2023-02-19T01:21:15;100090.50;;;10.32;100.00
8286;BME280;4181;43.416;24.598;2023-02-19T01:23:41;100111.31;;;10.38;100.00
8286;BME280;4181;43.416;24.598;2023-02-19T01:26:09;100107.53;;;10.39;100.00
8286;BME280;4181;43.416;24.598;2023-02-19T01:28:35;100117.94;;;10.42;100.00
8286;BME280;4181;43.416;24.598;2023-02-19T01:31:02;100118.94;;;10.36;100.00
8286;BME280;4181;43.416;24.598;2023-02-19T01:33:28;100114.81;;;10.34;100.00
8286;BME280;4181;43.416;24.598;2023-02-19T01:35:54;100113.38;;;10.48;100.00
8286;BME280;4181;43.416;24.598;2023-02-19T01:38:20;100101.31;;;10.44;100.00
8286;BME280;4181;43.416;24.598;2023-02-19T01:40:53;100107.56;;;10.61;100.00
8286;BME280;4181;43.416;24.598;2023-02-19T01:43:19;100106.16;;;10.58;100.00
8286;BME280;4181;43.416;24.598;2023-02-19T01:45:44;100105.03;;;10.54;100.00
8286;BME280;4181;43.416;24.598;2023-02-19T01:48:11;100116.50;;;10.56;100.00
8286;BME280;4181;43.416;24.598;2023-02-19T01:50:44;100125.50;;;10.57;100.00
8286;BME280;4181;43.416;24.598;2023-02-19T01:53:13;100125.19;;;10.53;100.00
8286;BME280;4181;43.416;24.598;2023-02-19T01:55:41;100089.34;;;10.45;100.00
8286;BME280;4181;43.416;24.598;2023-02-19T01:58:08;100116.59;;;10.61;100.00
8286;BME280;4181;43.416;24.598;2023-02-19T02:00:35;100123.09;;;10.60;100.00
8286;BME280;4181;43.416;24.598;2023-02-19T02:03:01;100116.66;;;10.66;100.00
8286;BME280;4181;43.416;24.598;2023-02-19T02:08:16;100120.34;;;9.89;100.00
8286;BME280;4181;43.416;24.598;2023-02-19T02:11:01;100140.03;;;9.46;100.00
8286;BME280;4181;43.416;24.598;2023-02-19T02:13:27;100140.78;;;9.30;100.00
8286;BME280;4181;43.416;24.598;2023-02-19T02:16:05;100130.72;;;9.31;100.00
8286;BME280;4181;43.416;24.598;2023-02-19T02:18:58;100129.94;;;9.47;100.00
8286;BME280;4181;43.416;24.598;2023-02-19T02:30:11;100121.81;;;10.84;100.00
8286;BME280;4181;43.416;24.598;2023-02-19T02:32:49;100107.09;;;11.33;100.00
8286;BME280;4181;43.416;24.598;2023-02-19T02:35:22;100095.22;;;11.71;100.00
8286;BME280;4181;43.416;24.598;2023-02-19T02:37:48;100099.59;;;12.04;100.00
8286;BME280;4181;43.416;24.598;2023-02-19T02:40:15;100083.41;;;12.34;100.00
8286;BME280;4181;43.416;24.598;2023-02-19T02:42:42;100086.28;;;12.59;100.00
8286;BME280;4181;43.416;24.598;2023-02-19T02:53:33;100067.69;;;13.28;100.00
8286;BME280;4181;43.416;24.598;2023-02-19T02:56:19;100068.00;;;13.36;100.00
8286;BME280;4181;43.416;24.598;2023-02-19T02:58:47;100060.34;;;13.38;100.00
8286;BME280;4181;43.416;24.598;2023-02-19T03:04:08;100063.59;;;13.45;100.00
8286;BME280;4181;43.416;24.598;2023-02-19T03:06:36;100064.72;;;13.49;100.00
8286;BME280;4181;43.416;24.598;2023-02-19T03:09:11;100075.97;;;13.48;100.00
8286;BME280;4181;43.416;24.598;2023-02-19T03:11:40;100078.41;;;13.44;100.00
8286;BME280;4181;43.416;24.598;2023-02-19T03:14:37;100072.38;;;13.37;100.00
8286;BME280;4181;43.416;24.598;2023-02-19T03:17:36;100081.41;;;13.33;100.00
8286;BME280;4181;43.416;24.598;2023-02-19T03:20:23;100081.69;;;13.36;100.00
8286;BME280;4181;43.416;24.598;2023-02-19T03:22:49;100080.03;;;13.35;100.00
8286;BME280;4181;43.416;24.598;2023-02-19T03:25:19;100083.03;;;13.29;100.00
8286;BME280;4181;43.416;24.598;2023-02-19T03:28:07;100087.72;;;13.33;100.00
8286;BME280;4181;43.416;24.598;2023-02-19T03:30:39;100077.28;;;13.30;100.00
8286;BME280;4181;43.416;24.598;2023-02-19T03:33:17;100077.28;;;13.30;100.00
8286;BME280;4181;43.416;24.598;2023-02-19T03:35:56;100073.44;;;13.21;100.00
8286;BME280;4181;43.416;24.598;2023-02-19T03:38:31;100090.44;;;13.28;100.00
8286;BME280;4181;43.416;24.598;2023-02-19T03:41:25;100082.78;;;13.35;100.00
8286;BME280;4181;43.416;24.598;2023-02-19T03:44:05;100076.50;;;13.35;100.00
8286;BME280;4181;43.416;24.598;2023-02-19T03:47:42;100064.97;;;13.33;100.00
8286;BME280;4181;43.416;24.598;2023-02-19T03:49:58;100069.63;;;13.32;100.00
8286;BME280;4181;43.416;24.598;2023-02-19T03:55:16;100058.06;;;13.20;100.00
8286;BME280;4181;43.416;24.598;2023-02-19T04:00:21;100049.88;;;13.25;100.00
8286;BME280;4181;43.416;24.598;2023-02-19T04:05:28;100054.81;;;13.18;100.00
8286;BME280;4181;43.416;24.598;2023-02-19T04:07:58;100055.34;;;13.20;100.00
8286;BME280;4181;43.416;24.598;2023-02-19T04:10:27;100061.09;;;13.24;100.00
8286;BME280;4181;43.416;24.598;2023-02-19T04:13:01;100065.78;;;13.23;100.00
8286;BME280;4181;43.416;24.598;2023-02-19T04:15:31;100066.31;;;13.25;100.00
8286;BME280;4181;43.416;24.598;2023-02-19T04:18:01;100067.41;;;13.24;100.00
8286;BME280;4181;43.416;24.598;2023-02-19T04:20:30;100077.28;;;13.30;100.00
8286;BME280;4181;43.416;24.598;2023-02-19T04:22:57;100085.78;;;13.29;100.00
8286;BME280;4181;43.416;24.598;2023-02-19T04:25:25;100087.72;;;13.33;100.00
8286;BME280;4181;43.416;24.598;2023-02-19T04:27:51;100064.09;;;13.17;100.00
8286;BME280;4181;43.416;24.598;2023-02-19T04:30:17;100092.09;;;13.29;100.00
8286;BME280;4181;43.416;24.598;2023-02-19T04:32:43;100097.56;;;13.29;100.00
8286;BME280;4181;43.416;24.598;2023-02-19T04:35:08;100098.09;;;13.26;100.00
8286;BME280;4181;43.416;24.598;2023-02-19T04:37:34;100089.03;;;13.21;100.00
8286;BME280;4181;43.416;24.598;2023-02-19T04:39:59;100095.34;;;13.16;100.00
8286;BME280;4181;43.416;24.598;2023-02-19T04:42:24;100109.31;;;13.20;100.00
8286;BME280;4181;43.416;24.598;2023-02-19T04:44:50;100085.44;;;13.10;100.00
8286;BME280;4181;43.416;24.598;2023-02-19T04:47:15;100084.63;;;13.10;100.00
8286;BME280;4181;43.416;24.598;2023-02-19T04:49:42;100093.44;;;13.17;100.00
8286;BME280;4181;43.416;24.598;2023-02-19T04:52:08;100098.91;;;13.17;100.00
8286;BME280;4181;43.416;24.598;2023-02-19T04:54:33;100087.91;;;13.07;100.00
8286;BME280;4181;43.416;24.598;2023-02-19T04:56:59;100095.84;;;13.03;100.00
8286;BME280;4181;43.416;24.598;2023-02-19T04:59:27;100110.09;;;13.15;100.00
8286;BME280;4181;43.416;24.598;2023-02-19T05:01:53;100118.59;;;13.14;100.00
8286;BME280;4181;43.416;24.598;2023-02-19T05:04:18;100114.47;;;13.06;100.00
8286;BME280;4181;43.416;24.598;2023-02-19T05:06:44;100121.84;;;13.06;100.00
8286;BME280;4181;43.416;24.598;2023-02-19T05:09:09;100104.34;;;13.07;100.00
8286;BME280;4181;43.416;24.598;2023-02-19T05:11:34;100117.22;;;13.06;100.00
8286;BME280;4181;43.416;24.598;2023-02-19T05:14:00;100117.75;;;13.03;100.00
8286;BME280;4181;43.416;24.598;2023-02-19T05:16:25;100111.91;;;12.90;100.00
8286;BME280;4181;43.416;24.598;2023-02-19T05:18:51;100128.66;;;12.98;100.00
8286;BME280;4181;43.416;24.598;2023-02-19T05:21:16;100144.59;;;13.01;100.00
8286;BME280;4181;43.416;24.598;2023-02-19T05:23:42;100140.13;;;12.95;100.00
8286;BME280;4181;43.416;24.598;2023-02-19T05:26:12;100151.94;;;13.01;100.00
8286;BME280;4181;43.416;24.598;2023-02-19T05:28:37;100140.38;;;12.89;100.00
8286;BME280;4181;43.416;24.598;2023-02-19T05:31:07;100167.00;;;12.98;100.00
8286;BME280;4181;43.416;24.598;2023-02-19T05:33:33;100162.06;;;13.00;100.00
8286;BME280;4181;43.416;24.598;2023-02-19T05:36:04;100168.16;;;13.07;100.00
8286;BME280;4181;43.416;24.598;2023-02-19T05:38:30;100161.88;;;13.07;100.00
8286;BME280;4181;43.416;24.598;2023-02-19T05:40:55;100167.34;;;13.07;100.00
8286;BME280;4181;43.416;24.598;2023-02-19T05:43:21;100169.03;;;13.18;100.00
8286;BME280;4181;43.416;24.598;2023-02-19T05:45:46;100158.63;;;13.20;100.00
8286;BME280;4181;43.416;24.598;2023-02-19T05:48:12;100175.16;;;13.40;100.00
8286;BME280;4181;43.416;24.598;2023-02-19T05:50:37;100172.16;;;13.46;100.00
8286;BME280;4181;43.416;24.598;2023-02-19T05:53:03;100178.25;;;13.58;100.00
8286;BME280;4181;43.416;24.598;2023-02-19T05:55:33;100170.53;;;13.60;100.00
8286;BME280;4181;43.416;24.598;2023-02-19T05:57:58;100169.47;;;13.66;100.00
8286;BME280;4181;43.416;24.598;2023-02-19T06:00:25;100184.56;;;13.74;100.00
8286;BME280;4181;43.416;24.598;2023-02-19T06:02:52;100201.03;;;13.84;100.00
8286;BME280;4181;43.416;24.598;2023-02-19T06:05:17;100184.56;;;13.79;100.00
8286;BME280;4181;43.416;24.598;2023-02-19T06:07:43;100211.25;;;14.09;100.00
8286;BME280;4181;43.416;24.598;2023-02-19T06:10:09;100203.56;;;14.16;100.00
8286;BME280;4181;43.416;24.598;2023-02-19T06:12:35;100200.06;;;14.45;100.00
8286;BME280;4181;43.416;24.598;2023-02-19T06:15:01;100200.28;;;14.74;100.00
8286;BME280;4181;43.416;24.598;2023-02-19T06:17:29;100193.13;;;14.98;100.00
8286;BME280;4181;43.416;24.598;2023-02-19T06:19:54;100198.50;;;15.33;100.00
8286;BME280;4181;43.416;24.598;2023-02-19T06:22:20;100180.81;;;15.59;100.00
8286;BME280;4181;43.416;24.598;2023-02-19T06:24:46;100174.34;;;15.84;100.00
8286;BME280;4181;43.416;24.598;2023-02-19T06:27:11;100163.34;;;16.17;100.00
8286;BME280;4181;43.416;24.598;2023-02-19T06:29:37;100138.88;;;16.16;100.00
8286;BME280;4181;43.416;24.598;2023-02-19T06:32:04;100163.03;;;16.24;100.00
8286;BME280;4181;43.416;24.598;2023-02-19T06:34:30;100159.97;;;16.30;100.00
8286;BME280;4181;43.416;24.598;2023-02-19T06:36:55;100161.75;;;16.50;100.00
8286;BME280;4181;43.416;24.598;2023-02-19T06:39:21;100147.06;;;16.60;100.00
8286;BME280;4181;43.416;24.598;2023-02-19T06:41:46;100157.09;;;16.74;100.00
8286;BME280;4181;43.416;24.598;2023-02-19T06:44:11;100150.63;;;16.89;100.00
8286;BME280;4181;43.416;24.598;2023-02-19T06:46:37;100135.91;;;16.98;100.00
8286;BME280;4181;43.416;24.598;2023-02-19T06:49:03;100130.16;;;17.18;100.00
8286;BME280;4181;43.416;24.598;2023-02-19T06:51:29;100129.94;;;17.33;100.00
8286;BME280;4181;43.416;24.598;2023-02-19T06:53:57;100145.53;;;17.43;100.00
8286;BME280;4181;43.416;24.598;2023-02-19T06:56:33;100141.50;;;17.59;100.00
8286;BME280;4181;43.416;24.598;2023-02-19T06:59:01;100139.94;;;17.72;100.00
8286;BME280;4181;43.416;24.598;2023-02-19T07:01:30;100144.63;;;17.90;100.00
8286;BME280;4181;43.416;24.598;2023-02-19T07:03:57;100143.78;;;18.08;100.00
8286;BME280;4181;43.416;24.598;2023-02-19T07:06:23;100140.31;;;18.34;100.00
8286;BME280;4181;43.416;24.598;2023-02-19T07:08:50;100140.91;;;18.31;100.00
8286;BME280;4181;43.416;24.598;2023-02-19T07:11:16;100131.88;;;18.44;100.00
8286;BME280;4181;43.416;24.598;2023-02-19T07:13:43;100140.94;;;18.63;100.00
8286;BME280;4181;43.416;24.598;2023-02-19T07:16:09;100135.03;;;18.83;100.00
8286;BME280;4181;43.416;24.598;2023-02-19T07:18:36;100132.50;;;19.01;100.00
8286;BME280;4181;43.416;24.598;2023-02-19T07:21:09;100131.97;;;19.12;100.00
8286;BME280;4181;43.416;24.598;2023-02-19T07:23:35;100140.59;;;19.24;100.00
8286;BME280;4181;43.416;24.598;2023-02-19T07:26:01;100131.19;;;19.39;100.00
8286;BME280;4181;43.416;24.598;2023-02-19T07:28:27;100135.06;;;19.38;100.00
8286;BME280;4181;43.416;24.598;2023-02-19T07:30:53;100136.19;;;19.50;100.00
8286;BME280;4181;43.416;24.598;2023-02-19T07:33:23;100109.22;;;19.56;100.00
8286;BME280;4181;43.416;24.598;2023-02-19T07:35:49;100135.03;;;20.00;100.00
8286;BME280;4181;43.416;24.598;2023-02-19T07:38:16;100128.59;;;20.27;100.00
8286;BME280;4181;43.416;24.598;2023-02-19T07:40:56;100130.34;;;20.23;100.00
8286;BME280;4181;43.416;24.598;2023-02-19T07:43:23;100140.56;;;20.36;100.00
8286;BME280;4181;43.416;24.598;2023-02-19T07:45:48;100129.88;;;20.30;100.00
8286;BME280;4181;43.416;24.598;2023-02-19T07:48:14;100147.97;;;20.27;100.00
8286;BME280;4181;43.416;24.598;2023-02-19T07:50:40;100144.44;;;20.35;100.00
8286;BME280;4181;43.416;24.598;2023-02-19T07:53:05;100140.38;;;20.33;100.00
8286;BME280;4181;43.416;24.598;2023-02-19T07:55:32;100141.94;;;20.47;100.00
8286;BME280;4181;43.416;24.598;2023-02-19T07:57:59;100124.91;;;20.62;100.00
8286;BME280;4181;43.416;24.598;2023-02-19T08:00:25;100137.19;;;20.78;100.00
8286;BME280;4181;43.416;24.598;2023-02-19T08:02:52;100138.22;;;20.82;100.00
8286;BME280;4181;43.416;24.598;2023-02-19T08:05:29;100128.47;;;20.93;100.00
8286;BME280;4181;43.416;24.598;2023-02-19T08:07:56;100110.38;;;20.96;100.00
8286;BME280;4181;43.416;24.598;2023-02-19T08:10:21;100104.94;;;21.13;100.00
8286;BME280;4181;43.416;24.598;2023-02-19T08:13:10;100100.94;;;21.45;100.00
8286;BME280;4181;43.416;24.598;2023-02-19T08:15:51;100094.75;;;21.65;100.00
8286;BME280;4181;43.416;24.598;2023-02-19T08:18:18;100100.59;;;21.63;100.00
8286;BME280;4181;43.416;24.598;2023-02-19T08:20:44;100100.16;;;21.78;100.00
8286;BME280;4181;43.416;24.598;2023-02-19T08:23:10;100106.88;;;22.03;100.00
8286;BME280;4181;43.416;24.598;2023-02-19T08:25:37;100096.56;;;22.29;100.00
8286;BME280;4181;43.416;24.598;2023-02-19T08:28:03;100104.88;;;22.29;100.00
8286;BME280;4181;43.416;24.598;2023-02-19T08:30:30;100102.94;;;22.38;100.00
8286;BME280;4181;43.416;24.598;2023-02-19T08:32:58;100097.34;;;22.55;100.00
8286;BME280;4181;43.416;24.598;2023-02-19T08:35:24;100092.22;;;22.74;100.00
8286;BME280;4181;43.416;24.598;2023-02-19T08:37:50;100084.19;;;22.81;100.00
8286;BME280;4181;43.416;24.598;2023-02-19T08:40:16;100094.78;;;23.17;100.00
8286;BME280;4181;43.416;24.598;2023-02-19T08:42:41;100097.22;;;23.27;100.00
8286;BME280;4181;43.416;24.598;2023-02-19T08:45:08;100095.28;;;23.19;100.00
8286;BME280;4181;43.416;24.598;2023-02-19T08:47:35;100099.69;;;22.91;100.00
8286;BME280;4181;43.416;24.598;2023-02-19T08:50:00;100095.38;;;23.02;100.00
8286;BME280;4181;43.416;24.598;2023-02-19T08:52:26;100101.72;;;23.11;100.00
8286;BME280;4181;43.416;24.598;2023-02-19T08:54:52;100089.88;;;23.22;100.00
8286;BME280;4181;43.416;24.598;2023-02-19T08:57:17;100082.56;;;23.38;100.00
8286;BME280;4181;43.416;24.598;2023-02-19T08:59:43;100080.09;;;23.45;100.00
8286;BME280;4181;43.416;24.598;2023-02-19T09:02:09;100062.78;;;23.60;100.00
8286;BME280;4181;43.416;24.598;2023-02-19T09:04:37;100053.41;;;23.65;100.00
8286;BME280;4181;43.416;24.598;2023-02-19T09:07:03;100053.28;;;23.61;100.00
8286;BME280;4181;43.416;24.598;2023-02-19T09:09:32;100068.69;;;23.79;100.00
8286;BME280;4181;43.416;24.598;2023-02-19T09:11:57;100058.09;;;23.73;100.00
8286;BME280;4181;43.416;24.598;2023-02-19T09:14:23;100046.19;;;23.85;100.00
8286;BME280;4181;43.416;24.598;2023-02-19T09:16:48;100043.28;;;23.81;100.00
8286;BME280;4181;43.416;24.598;2023-02-19T09:19:14;100035.75;;;23.82;100.00
8286;BME280;4181;43.416;24.598;2023-02-19T09:21:41;100038.19;;;23.83;100.00
8286;BME280;4181;43.416;24.598;2023-02-19T09:24:10;100021.97;;;23.97;100.00
8286;BME280;4181;43.416;24.598;2023-02-19T09:26:35;100039.75;;;24.25;100.00
8286;BME280;4181;43.416;24.598;2023-02-19T09:29:00;100020.34;;;24.17;100.00
8286;BME280;4181;43.416;24.598;2023-02-19T09:31:26;100028.66;;;24.05;100.00
8286;BME280;4181;43.416;24.598;2023-02-19T09:33:51;100037.50;;;24.07;100.00
8286;BME280;4181;43.416;24.598;2023-02-19T09:36:17;100038.50;;;24.02;100.00
8286;BME280;4181;43.416;24.598;2023-02-19T09:38:43;100045.31;;;23.93;100.00
8286;BME280;4181;43.416;24.598;2023-02-19T09:41:28;100043.94;;;23.99;100.00
8286;BME280;4181;43.416;24.598;2023-02-19T09:43:57;100047.97;;;24.10;100.00
8286;BME280;4181;43.416;24.598;2023-02-19T09:49:33;100024.19;;;23.71;100.00
8286;BME280;4181;43.416;24.598;2023-02-19T09:52:11;100050.06;;;23.92;100.00
8286;BME280;4181;43.416;24.598;2023-02-19T09:54:40;100037.63;;;23.90;100.00
8286;BME280;4181;43.416;24.598;2023-02-19T09:57:18;100065.09;;;23.79;100.00
8286;BME280;4181;43.416;24.598;2023-02-19T09:59:49;100044.44;;;23.59;100.00
8286;BME280;4181;43.416;24.598;2023-02-19T10:02:23;100046.63;;;23.74;100.00
8286;BME280;4181;43.416;24.598;2023-02-19T10:04:49;100038.19;;;23.62;100.00
8286;BME280;4181;43.416;24.598;2023-02-19T10:07:32;100043.41;;;23.85;100.00
8286;BME280;4181;43.416;24.598;2023-02-19T10:10:04;100033.94;;;23.98;100.00
8286;BME280;4181;43.416;24.598;2023-02-19T10:12:32;100008.69;;;24.03;100.00
8286;BME280;4181;43.416;24.598;2023-02-19T10:15:14;100013.13;;;23.95;100.00
8286;BME280;4181;43.416;24.598;2023-02-19T10:17:41;100020.88;;;23.98;100.00
8286;BME280;4181;43.416;24.598;2023-02-19T10:20:13;100007.97;;;24.06;100.00
8286;BME280;4181;43.416;24.598;2023-02-19T10:22:39;100017.16;;;23.86;100.00
8286;BME280;4181;43.416;24.598;2023-02-19T10:25:05;100018.19;;;23.60;100.00
8286;BME280;4181;43.416;24.598;2023-02-19T10:27:31;100023.44;;;23.41;100.00
8286;BME280;4181;43.416;24.598;2023-02-19T10:29:57;100044.16;;;23.23;100.00
8286;BME280;4181;43.416;24.598;2023-02-19T10:32:25;100035.72;;;23.40;100.00
8286;BME280;4181;43.416;24.598;2023-02-19T10:37:33;100041.84;;;23.54;100.00
8286;BME280;4181;43.416;24.598;2023-02-19T10:39:59;100012.97;;;23.79;100.00
8286;BME280;4181;43.416;24.598;2023-02-19T10:42:25;100034.97;;;23.93;100.00
8286;BME280;4181;43.416;24.598;2023-02-19T10:44:57;100024.47;;;23.78;100.00
8286;BME280;4181;43.416;24.598;2023-02-19T10:47:29;100024.47;;;23.78;100.00
8286;BME280;4181;43.416;24.598;2023-02-19T10:49:58;100011.44;;;23.70;100.00
8286;BME280;4181;43.416;24.598;2023-02-19T10:52:31;100015.53;;;23.85;100.00
8286;BME280;4181;43.416;24.598;2023-02-19T10:55:25;100002.28;;;24.02;100.00
8286;BME280;4181;43.416;24.598;2023-02-19T10:57:50;99983.50;;;24.11;100.00
8286;BME280;4181;43.416;24.598;2023-02-19T11:00:27;99996.41;;;24.16;100.00
8286;BME280;4181;43.416;24.598;2023-02-19T11:03:15;99993.25;;;24.17;100.00
8286;BME280;4181;43.416;24.598;2023-02-19T11:06:12;99984.31;;;24.12;100.00
8286;BME280;4181;43.416;24.598;2023-02-19T11:13:54;99963.13;;;23.99;100.00
8286;BME280;4181;43.416;24.598;2023-02-19T11:16:21;99962.25;;;23.86;100.00
8286;BME280;4181;43.416;24.598;2023-02-19T11:18:54;99964.81;;;23.58;100.00
8286;BME280;4181;43.416;24.598;2023-02-19T11:21:29;99965.91;;;23.45;100.00
8286;BME280;4181;43.416;24.598;2023-02-19T11:23:58;99968.03;;;23.28;100.00
8286;BME280;4181;43.416;24.598;2023-02-19T11:26:27;99979.44;;;23.06;100.00
8286;BME280;4181;43.416;24.598;2023-02-19T11:29:00;99979.50;;;22.97;100.00
8286;BME280;4181;43.416;24.598;2023-02-19T11:31:30;99983.53;;;22.79;100.00
8286;BME280;4181;43.416;24.598;2023-02-19T11:34:24;99976.44;;;22.90;100.00
8286;BME280;4181;43.416;24.598;2023-02-19T11:37:09;99955.56;;;23.25;100.00
8286;BME280;4181;43.416;24.598;2023-02-19T11:39:35;99957.56;;;23.45;100.00
8286;BME280;4181;43.416;24.598;2023-02-19T11:47:44;99944.72;;;24.18;100.00
8286;BME280;4181;43.416;24.598;2023-02-19T11:50:23;99939.94;;;24.19;100.00
8286;BME280;4181;43.416;24.598;2023-02-19T11:59:01;99925.13;;;24.75;100.00
8286;BME280;4181;43.416;24.598;2023-02-19T12:15:28;99941.66;;;23.66;100.00
8286;BME280;4181;43.416;24.598;2023-02-19T12:20:52;99925.63;;;23.75;100.00
8286;BME280;4181;43.416;24.598;2023-02-19T12:40:13;99906.50;;;23.41;100.00
8286;BME280;4181;43.416;24.598;2023-02-19T12:47:59;99901.88;;;23.25;100.00
8286;BME280;4181;43.416;24.598;2023-02-19T12:50:26;99888.75;;;23.25;100.00
8286;BME280;4181;43.416;24.598;2023-02-19T12:52:58;99889.00;;;23.12;100.00
8286;BME280;4181;43.416;24.598;2023-02-19T12:55:33;99878.72;;;23.12;100.00
8286;BME280;4181;43.416;24.598;2023-02-19T12:58:02;99897.84;;;23.14;100.00
8286;BME280;4181;43.416;24.598;2023-02-19T13:00:42;99884.75;;;23.14;100.00
8286;BME280;4181;43.416;24.598;2023-02-19T13:06:08;99886.75;;;22.93;100.00
8286;BME280;4181;43.416;24.598;2023-02-19T13:08:46;99876.28;;;22.70;100.00
8286;BME280;4181;43.416;24.598;2023-02-19T13:11:16;99849.59;;;22.69;100.00
8286;BME280;4181;43.416;24.598;2023-02-19T13:14:06;99872.34;;;22.91;100.00
8286;BME280;4181;43.416;24.598;2023-02-19T13:16:40;99869.91;;;22.90;100.00
8286;BME280;4181;43.416;24.598;2023-02-19T13:19:08;99865.28;;;22.94;100.00
8286;BME280;4181;43.416;24.598;2023-02-19T13:21:36;99860.53;;;22.94;100.00
8286;BME280;4181;43.416;24.598;2023-02-19T13:24:26;99873.69;;;22.85;100.00
8286;BME280;4181;43.416;24.598;2023-02-19T13:30:20;99860.16;;;22.75;100.00
8286;BME280;4181;43.416;24.598;2023-02-19T13:38:10;99845.59;;;22.58;100.00
8286;BME280;4181;43.416;24.598;2023-02-19T13:40:41;99833.28;;;22.58;100.00
8286;BME280;4181;43.416;24.598;2023-02-19T13:43:24;99839.63;;;22.68;100.00
8286;BME280;4181;43.416;24.598;2023-02-19T13:45:56;99840.16;;;22.61;100.00
8286;BME280;4181;43.416;24.598;2023-02-19T13:50:49;99848.91;;;22.42;100.00
8286;BME280;4181;43.416;24.598;2023-02-19T14:04:22;99847.25;;;21.75;100.00
8286;BME280;4181;43.416;24.598;2023-02-19T14:19:47;99827.91;;;21.41;100.00
8286;BME280;4181;43.416;24.598;2023-02-19T14:28:28;99818.75;;;21.49;100.00
8286;BME280;4181;43.416;24.598;2023-02-19T14:31:01;99810.78;;;21.30;100.00
8286;BME280;4181;43.416;24.598;2023-02-19T14:33:33;99816.97;;;21.44;100.00
8286;BME280;4181;43.416;24.598;2023-02-19T14:38:37;99811.13;;;21.28;100.00
8286;BME280;4181;43.416;24.598;2023-02-19T14:41:05;99817.84;;;21.19;100.00
8286;BME280;4181;43.416;24.598;2023-02-19T14:43:32;99791.56;;;20.91;100.00
8286;BME280;4181;43.416;24.598;2023-02-19T14:48:48;99786.69;;;20.79;100.00
8286;BME280;4181;43.416;24.598;2023-02-19T14:51:29;99775.59;;;20.71;100.00
8286;BME280;4181;43.416;24.598;2023-02-19T14:53:56;99799.22;;;20.85;100.00
8286;BME280;4181;43.416;24.598;2023-02-19T14:56:26;99783.25;;;20.74;100.00
8286;BME280;4181;43.416;24.598;2023-02-19T14:59:19;99799.88;;;20.65;100.00
8286;BME280;4181;43.416;24.598;2023-02-19T15:01:52;99781.47;;;20.61;100.00
8286;BME280;4181;43.416;24.598;2023-02-19T15:04:25;99776.56;;;20.49;100.00
8286;BME280;4181;43.416;24.598;2023-02-19T15:06:52;99785.38;;;20.51;100.00
8286;BME280;4181;43.416;24.598;2023-02-19T15:09:18;99783.41;;;20.60;100.00
8286;BME280;4181;43.416;24.598;2023-02-19T15:11:45;99768.56;;;20.39;100.00
8286;BME280;4181;43.416;24.598;2023-02-19T15:14:18;99796.75;;;20.24;100.00
8286;BME280;4181;43.416;24.598;2023-02-19T15:16:45;99802.44;;;20.19;100.00
8286;BME280;4181;43.416;24.598;2023-02-19T15:19:13;99794.44;;;20.18;100.00
8286;BME280;4181;43.416;24.598;2023-02-19T15:21:45;99799.00;;;20.22;100.00
8286;BME280;4181;43.416;24.598;2023-02-19T15:24:14;99801.38;;;20.06;100.00
8286;BME280;4181;43.416;24.598;2023-02-19T15:26:43;99808.25;;;20.09;100.00
8286;BME280;4181;43.416;24.598;2023-02-19T15:29:16;99808.91;;;20.06;100.00
8286;BME280;4181;43.416;24.598;2023-02-19T15:31:57;99804.59;;;19.91;100.00